Time;durP1;ratioP1;P1;durP2;ratioP2;P2;SDS_P1;SDS_P2;PMS_P1;PMS_P2;Temp;Humidity;BMP_temperature;BMP_pressure;BME280_temperature;BME280_humidity;BME280_pressure;Samples;Min_cycle;Max_cycle;Signal;HPM_P1;HPM_P2
2022/04/06 00:00:49;;;;;;;30.77;10.23;;;;;;;;;;5093086;28;20047;-73
2022/04/06 00:03:15;;;;;;;32.85;11.20;;;;;;;;;;5115543;28;20047;-72
2022/04/06 00:05:42;;;;;;;20.52;7.22;;;;;;;;;;5080612;28;20391;-73
2022/04/06 00:08:08;;;;;;;23.33;8.13;;;;;;;;;;5104935;28;20036;-73
2022/04/06 00:10:34;;;;;;;34.33;10.52;;;;;;;;;;5077111;28;20063;-73
2022/04/06 00:13:00;;;;;;;30.60;10.23;;;;;;;;;;5095369;28;20419;-72
2022/04/06 00:15:29;;;;;;;30.90;10.25;;;;;;;;;;5085065;28;20483;-73
2022/04/06 00:17:55;;;;;;;24.70;8.82;;;;;;;;;;5072885;28;20054;-72
2022/04/06 00:20:21;;;;;;;29.27;9.75;;;;;;;;;;5078093;28;20491;-72
2022/04/06 00:22:47;;;;;;;26.05;10.27;;;;;;;;;;5092365;28;20051;-72
2022/04/06 00:25:13;;;;;;;28.27;9.23;;;;;;;;;;5078062;28;20048;-73
2022/04/06 00:27:39;;;;;;;27.05;8.23;;;;;;;;;;5076950;28;20053;-72
2022/04/06 00:30:05;;;;;;;25.90;8.38;;;;;;;;;;5076099;28;20044;-72
2022/04/06 00:32:31;;;;;;;28.00;8.52;;;;;;;;;;5077855;28;20047;-72
2022/04/06 00:37:42;;;;;;;23.80;7.63;;;;;;;;;;5094422;28;20055;-73
2022/04/06 00:40:08;;;;;;;24.95;8.88;;;;;;;;;;5060439;28;20104;-72
2022/04/06 00:42:34;;;;;;;27.08;7.60;;;;;;;;;;5077871;28;20117;-72
2022/04/06 00:45:01;;;;;;;26.15;8.65;;;;;;;;;;5095810;28;20492;-72
2022/04/06 00:47:27;;;;;;;28.10;7.95;;;;;;;;;;5106381;28;20097;-74
2022/04/06 00:49:53;;;;;;;29.25;8.38;;;;;;;;;;5087953;28;20055;-72
2022/04/06 00:52:20;;;;;;;21.20;7.50;;;;;;;;;;5059883;28;20040;-73
2022/04/06 00:54:47;;;;;;;17.02;5.60;;;;;;;;;;5076450;28;20044;-73
2022/04/06 00:57:13;;;;;;;25.92;7.50;;;;;;;;;;5059752;28;20048;-72
2022/04/06 00:59:41;;;;;;;20.75;7.32;;;;;;;;;;5077952;28;20070;-73
2022/04/06 01:02:08;;;;;;;17.92;6.32;;;;;;;;;;5094137;28;20098;-73
2022/04/06 01:04:34;;;;;;;21.08;6.57;;;;;;;;;;5093569;28;20495;-73
2022/04/06 01:07:00;;;;;;;17.30;5.70;;;;;;;;;;5094093;28;20044;-72
2022/04/06 01:09:26;;;;;;;23.08;5.63;;;;;;;;;;5091271;28;20044;-73
2022/04/06 01:11:52;;;;;;;22.73;7.20;;;;;;;;;;5076332;28;20043;-72
2022/04/06 01:14:19;;;;;;;20.70;5.13;;;;;;;;;;5075904;28;20396;-73
2022/04/06 01:16:58;;;;;;;19.42;7.25;;;;;;;;;;5093825;28;20114;-72
2022/04/06 01:19:24;;;;;;;16.88;5.95;;;;;;;;;;5092402;28;20135;-73
2022/04/06 01:21:50;;;;;;;18.05;5.40;;;;;;;;;;5093964;28;20048;-73
2022/04/06 01:24:16;;;;;;;16.80;5.88;;;;;;;;;;5114123;28;20043;-72
2022/04/06 01:26:42;;;;;;;17.58;5.50;;;;;;;;;;5095958;28;20141;-72
2022/04/06 01:29:08;;;;;;;16.50;5.15;;;;;;;;;;5091657;28;20047;-73
2022/04/06 01:31:34;;;;;;;21.15;6.00;;;;;;;;;;5093482;28;20055;-73
2022/04/06 01:34:00;;;;;;;14.75;4.95;;;;;;;;;;5093547;28;20048;-72
2022/04/06 01:36:26;;;;;;;21.05;6.35;;;;;;;;;;5092301;28;20075;-73
2022/04/06 01:38:52;;;;;;;12.10;4.60;;;;;;;;;;5072367;28;20438;-73
2022/04/06 01:41:18;;;;;;;14.35;5.30;;;;;;;;;;5075486;28;20048;-73
2022/04/06 01:43:44;;;;;;;15.77;4.65;;;;;;;;;;5072694;28;20048;-72
2022/04/06 01:46:10;;;;;;;15.80;4.32;;;;;;;;;;5113843;28;20044;-72
2022/04/06 01:52:11;;;;;;;16.73;4.50;;;;;;;;;;5094283;28;21885;-73
2022/04/06 01:54:07;;;;;;;13.10;4.30;;;;;;;;;;5081121;28;20036;-73
2022/04/06 01:56:33;;;;;;;13.57;3.38;;;;;;;;;;5093284;28;20054;-72
2022/04/06 01:58:59;;;;;;;13.10;2.85;;;;;;;;;;5094821;28;20391;-73
2022/04/06 02:01:26;;;;;;;11.95;3.10;;;;;;;;;;5074981;28;20036;-73
2022/04/06 02:03:52;;;;;;;9.65;2.75;;;;;;;;;;5093091;28;20051;-73
2022/04/06 02:06:18;;;;;;;10.77;2.85;;;;;;;;;;5094168;28;20250;-73
2022/04/06 02:08:44;;;;;;;8.88;2.50;;;;;;;;;;5107115;28;20047;-74
2022/04/06 02:11:10;;;;;;;16.88;2.58;;;;;;;;;;5076600;28;20056;-73
2022/04/06 02:13:36;;;;;;;9.57;2.83;;;;;;;;;;5113317;28;20407;-73
2022/04/06 02:16:02;;;;;;;13.13;2.70;;;;;;;;;;5112595;28;20126;-72
2022/04/06 02:18:28;;;;;;;8.70;2.42;;;;;;;;;;5077369;28;20515;-72
2022/04/06 02:20:54;;;;;;;12.35;2.65;;;;;;;;;;5074894;28;20128;-72
2022/04/06 02:23:20;;;;;;;12.73;2.83;;;;;;;;;;5074952;28;20484;-72
2022/04/06 02:25:46;;;;;;;14.13;2.80;;;;;;;;;;5076969;28;20105;-72
2022/04/06 02:28:12;;;;;;;7.15;2.17;;;;;;;;;;5111587;28;20047;-72
2022/04/06 02:30:38;;;;;;;15.32;3.25;;;;;;;;;;5076298;28;20055;-72
2022/04/06 02:33:04;;;;;;;9.48;2.83;;;;;;;;;;5081541;28;20051;-73
2022/04/06 02:35:30;;;;;;;12.40;2.90;;;;;;;;;;5086241;28;20044;-73
2022/04/06 02:37:57;;;;;;;8.52;2.00;;;;;;;;;;5075235;28;20036;-73
2022/04/06 02:40:23;;;;;;;11.10;3.10;;;;;;;;;;5089613;28;20118;-72
2022/04/06 02:42:49;;;;;;;12.43;2.92;;;;;;;;;;5095455;28;20051;-73
2022/04/06 02:45:15;;;;;;;12.02;3.58;;;;;;;;;;5078015;28;20032;-72
2022/04/06 02:47:41;;;;;;;10.02;2.70;;;;;;;;;;5095099;28;20090;-71
2022/04/06 02:50:07;;;;;;;19.55;5.25;;;;;;;;;;5094840;28;20169;-72
2022/04/06 02:52:34;;;;;;;17.27;4.40;;;;;;;;;;5079243;28;20407;-72
2022/04/06 02:54:59;;;;;;;9.73;4.00;;;;;;;;;;5111754;28;20043;-73
2022/04/06 02:57:26;;;;;;;17.80;3.88;;;;;;;;;;5103850;28;20112;-73
2022/04/06 02:59:51;;;;;;;18.02;4.60;;;;;;;;;;5081861;28;20546;-72
2022/04/06 03:02:17;;;;;;;17.05;4.00;;;;;;;;;;5112054;28;20123;-72
2022/04/06 03:04:43;;;;;;;19.02;5.30;;;;;;;;;;5078779;28;20040;-72
2022/04/06 03:07:09;;;;;;;19.73;4.97;;;;;;;;;;5092127;28;20101;-72
2022/04/06 03:09:35;;;;;;;19.77;4.93;;;;;;;;;;5078378;28;20587;-72
2022/04/06 03:12:03;;;;;;;15.60;4.20;;;;;;;;;;5096438;28;20113;-72
2022/04/06 03:14:29;;;;;;;17.75;5.55;;;;;;;;;;5094192;28;20048;-71
2022/04/06 03:16:56;;;;;;;14.27;5.47;;;;;;;;;;5075951;28;20044;-71
2022/04/06 03:19:24;;;;;;;21.70;6.05;;;;;;;;;;5074341;28;20044;-72
2022/04/06 03:21:50;;;;;;;25.98;7.43;;;;;;;;;;5075792;28;20127;-72
2022/04/06 03:24:16;;;;;;;18.48;6.28;;;;;;;;;;5075864;28;20131;-72
2022/04/06 03:26:42;;;;;;;20.83;5.50;;;;;;;;;;5095950;28;20044;-72
2022/04/06 03:29:08;;;;;;;22.00;6.10;;;;;;;;;;5084476;28;20048;-72
2022/04/06 03:31:34;;;;;;;24.92;6.78;;;;;;;;;;5060507;28;20051;-72
2022/04/06 03:34:00;;;;;;;22.52;6.47;;;;;;;;;;5093834;28;20055;-72
2022/04/06 03:36:26;;;;;;;14.85;5.82;;;;;;;;;;5077137;28;20048;-72
2022/04/06 03:38:52;;;;;;;20.70;6.53;;;;;;;;;;5072964;28;20104;-72
2022/04/06 03:41:18;;;;;;;17.77;5.55;;;;;;;;;;5095635;28;20139;-72
2022/04/06 03:43:44;;;;;;;13.52;5.13;;;;;;;;;;5095823;28;20040;-72
2022/04/06 03:46:10;;;;;;;13.93;5.63;;;;;;;;;;5081574;28;20059;-73
2022/04/06 03:48:36;;;;;;;21.35;5.95;;;;;;;;;;5074350;28;20111;-72
2022/04/06 03:51:02;;;;;;;24.50;5.97;;;;;;;;;;5055120;28;20080;-72
2022/04/06 03:53:28;;;;;;;19.42;5.82;;;;;;;;;;5061106;28;20052;-72
2022/04/06 03:55:54;;;;;;;14.60;5.53;;;;;;;;;;5075998;28;20048;-72
2022/04/06 03:58:20;;;;;;;12.30;4.63;;;;;;;;;;5074114;28;20044;-72
2022/04/06 04:00:46;;;;;;;21.70;5.03;;;;;;;;;;5073858;28;20044;-72
2022/04/06 04:03:12;;;;;;;21.88;5.95;;;;;;;;;;5075322;28;20055;-72
2022/04/06 04:05:38;;;;;;;18.40;4.75;;;;;;;;;;5083142;28;20087;-72
2022/04/06 04:08:04;;;;;;;16.65;4.28;;;;;;;;;;5084519;28;20079;-72
2022/04/06 04:10:31;;;;;;;15.18;4.78;;;;;;;;;;5076176;28;20097;-72
2022/04/06 04:12:57;;;;;;;17.90;4.10;;;;;;;;;;5060601;28;20506;-72
2022/04/06 04:15:23;;;;;;;16.27;5.57;;;;;;;;;;5105692;28;20044;-72
2022/04/06 04:17:49;;;;;;;18.30;5.18;;;;;;;;;;5096764;28;20040;-71
2022/04/06 04:20:15;;;;;;;17.02;4.22;;;;;;;;;;5097474;28;20043;-71
2022/04/06 04:22:41;;;;;;;17.23;3.97;;;;;;;;;;5093134;28;20403;-72
2022/04/06 04:25:07;;;;;;;13.20;3.22;;;;;;;;;;5086620;28;20050;-72
2022/04/06 04:27:33;;;;;;;13.65;3.55;;;;;;;;;;5098004;28;20043;-72
2022/04/06 04:29:59;;;;;;;12.57;3.75;;;;;;;;;;5115276;28;20055;-72
2022/04/06 04:32:25;;;;;;;12.75;3.25;;;;;;;;;;5113410;28;20395;-72
2022/04/06 04:34:51;;;;;;;17.05;3.35;;;;;;;;;;5095035;28;20097;-71
2022/04/06 04:37:17;;;;;;;17.90;3.50;;;;;;;;;;5097128;28;20048;-73
2022/04/06 04:39:43;;;;;;;14.15;3.42;;;;;;;;;;5104281;28;20047;-73
2022/04/06 04:42:09;;;;;;;12.05;3.58;;;;;;;;;;5096966;28;20048;-72
2022/04/06 04:44:35;;;;;;;22.63;4.97;;;;;;;;;;5094684;28;20048;-72
2022/04/06 04:47:01;;;;;;;14.50;3.53;;;;;;;;;;5114602;28;20105;-72
2022/04/06 04:49:27;;;;;;;12.23;3.33;;;;;;;;;;5115050;28;20044;-72
2022/04/06 04:51:53;;;;;;;10.90;2.92;;;;;;;;;;5114523;28;20047;-72
2022/04/06 04:54:24;;;;;;;17.05;3.35;;;;;;;;;;5095814;28;20152;-72
2022/04/06 04:56:50;;;;;;;8.38;2.42;;;;;;;;;;5096699;28;20062;-72
2022/04/06 04:59:16;;;;;;;10.57;2.40;;;;;;;;;;5104551;28;20039;-72
2022/04/06 05:01:42;;;;;;;11.18;2.42;;;;;;;;;;5076082;28;20048;-72
2022/04/06 05:04:08;;;;;;;12.13;3.35;;;;;;;;;;5078035;28;20522;-72
2022/04/06 05:06:34;;;;;;;15.43;3.65;;;;;;;;;;5108656;28;20044;-72
2022/04/06 05:09:00;;;;;;;14.85;3.55;;;;;;;;;;5093142;28;20056;-73
2022/04/06 05:11:27;;;;;;;13.75;4.05;;;;;;;;;;5114296;28;20054;-72
2022/04/06 05:13:53;;;;;;;10.30;2.83;;;;;;;;;;5095314;28;20047;-73
2022/04/06 05:16:19;;;;;;;11.68;3.00;;;;;;;;;;5094386;28;20469;-72
2022/04/06 05:18:46;;;;;;;14.32;3.72;;;;;;;;;;5112665;28;20050;-72
2022/04/06 05:21:12;;;;;;;16.88;3.10;;;;;;;;;;5082275;28;20036;-72
2022/04/06 05:23:38;;;;;;;14.68;4.22;;;;;;;;;;5093765;28;20051;-72
2022/04/06 05:26:04;;;;;;;18.67;3.78;;;;;;;;;;5094850;28;20065;-72
2022/04/06 05:28:30;;;;;;;13.70;2.92;;;;;;;;;;5114362;28;20043;-72
2022/04/06 05:30:56;;;;;;;19.70;3.67;;;;;;;;;;5082069;28;20109;-72
2022/04/06 05:33:22;;;;;;;11.18;2.63;;;;;;;;;;5093625;28;20492;-74
2022/04/06 05:35:48;;;;;;;12.00;4.55;;;;;;;;;;5076714;28;20055;-70
2022/04/06 05:38:14;;;;;;;11.77;3.30;;;;;;;;;;5075598;28;20462;-74
2022/04/06 05:40:40;;;;;;;6.57;2.33;;;;;;;;;;5075231;28;20044;-71
2022/04/06 05:43:06;;;;;;;18.60;3.53;;;;;;;;;;5075820;28;20044;-71
2022/04/06 05:45:32;;;;;;;8.05;2.85;;;;;;;;;;5059648;28;20047;-70
2022/04/06 05:47:58;;;;;;;23.13;4.20;;;;;;;;;;5075305;28;20048;-71
2022/04/06 05:50:24;;;;;;;6.43;2.38;;;;;;;;;;5093180;28;20403;-70
2022/04/06 05:52:51;;;;;;;10.23;2.00;;;;;;;;;;5075277;28;20377;-70
2022/04/06 05:55:17;;;;;;;18.30;3.40;;;;;;;;;;5076756;28;20044;-69
2022/04/06 05:57:43;;;;;;;19.60;3.50;;;;;;;;;;5094708;28;20182;-68
2022/04/06 06:00:09;;;;;;;8.05;2.28;;;;;;;;;;5090509;28;20069;-68
2022/04/06 06:02:36;;;;;;;13.68;3.00;;;;;;;;;;5084047;28;20089;-69
2022/04/06 06:05:02;;;;;;;12.88;2.33;;;;;;;;;;5059668;28;20047;-69
2022/04/06 06:07:28;;;;;;;16.83;3.28;;;;;;;;;;5076762;28;20048;-67
2022/04/06 06:09:54;;;;;;;12.10;2.13;;;;;;;;;;5078840;28;20056;-69
2022/04/06 06:12:20;;;;;;;8.70;2.70;;;;;;;;;;5027213;22;20039;-67
2022/04/06 06:14:46;;;;;;;17.27;2.42;;;;;;;;;;5086587;28;20051;-70
2022/04/06 06:17:12;;;;;;;14.10;2.88;;;;;;;;;;5075014;28;20122;-68
2022/04/06 06:19:38;;;;;;;7.47;1.88;;;;;;;;;;5074626;28;20054;-69
2022/04/06 06:22:04;;;;;;;11.45;3.90;;;;;;;;;;5074825;28;20047;-70
2022/04/06 06:24:31;;;;;;;10.88;2.63;;;;;;;;;;5093161;28;20115;-71
2022/04/06 06:26:58;;;;;;;12.07;2.33;;;;;;;;;;5074053;28;20048;-69
2022/04/06 06:29:24;;;;;;;10.52;2.13;;;;;;;;;;5115198;22;20058;-70
2022/04/06 06:31:50;;;;;;;11.02;1.88;;;;;;;;;;5129139;22;20127;-68
2022/04/06 06:34:16;;;;;;;10.15;2.53;;;;;;;;;;5072406;28;20135;-69
2022/04/06 06:36:42;;;;;;;16.02;3.00;;;;;;;;;;5054898;28;20052;-70
2022/04/06 06:39:08;;;;;;;12.07;2.60;;;;;;;;;;5072220;28;20105;-69
2022/04/06 06:41:35;;;;;;;13.60;2.75;;;;;;;;;;5071371;28;20045;-70
2022/04/06 06:44:02;;;;;;;14.10;3.28;;;;;;;;;;5054841;28;20049;-71
2022/04/06 06:46:30;;;;;;;13.70;2.55;;;;;;;;;;5062305;28;20105;-70
2022/04/06 06:49:02;;;;;;;8.98;2.05;;;;;;;;;;5072427;28;20091;-70
2022/04/06 06:51:30;;;;;;;15.85;2.80;;;;;;;;;;5071775;28;20158;-69
2022/04/06 06:53:56;;;;;;;11.43;2.40;;;;;;;;;;5072009;28;20485;-71
2022/04/06 06:56:21;;;;;;;12.18;3.45;;;;;;;;;;5054774;28;20047;-71
2022/04/06 06:58:47;;;;;;;16.13;3.20;;;;;;;;;;5072438;28;20431;-69
2022/04/06 07:01:13;;;;;;;15.25;2.95;;;;;;;;;;5054059;28;20076;-69
2022/04/06 07:03:39;;;;;;;15.82;2.47;;;;;;;;;;5055097;28;20130;-71
2022/04/06 07:06:05;;;;;;;11.20;3.10;;;;;;;;;;5071134;28;20511;-72
2022/04/06 07:08:31;;;;;;;15.13;2.45;;;;;;;;;;5071609;28;20076;-70
2022/04/06 07:10:57;;;;;;;18.80;3.15;;;;;;;;;;5072283;28;20120;-72
2022/04/06 07:13:25;;;;;;;13.43;2.75;;;;;;;;;;5054256;28;20429;-72
2022/04/06 07:15:51;;;;;;;20.65;3.28;;;;;;;;;;5055583;28;20439;-71
2022/04/06 07:18:18;;;;;;;7.65;1.88;;;;;;;;;;5055833;28;20113;-72
2022/04/06 07:20:44;;;;;;;13.63;3.28;;;;;;;;;;5071334;28;20107;-71
2022/04/06 07:23:10;;;;;;;17.98;2.85;;;;;;;;;;5070626;28;20087;-71
2022/04/06 07:25:36;;;;;;;13.23;2.92;;;;;;;;;;5071468;28;20072;-71
2022/04/06 07:28:03;;;;;;;15.63;2.45;;;;;;;;;;5036736;28;20052;-72
2022/04/06 07:30:30;;;;;;;15.15;2.97;;;;;;;;;;5072022;28;20123;-69
2022/04/06 07:32:58;;;;;;;18.75;2.97;;;;;;;;;;5052735;28;20052;-72
2022/04/06 07:35:23;;;;;;;18.10;2.85;;;;;;;;;;5071457;28;20045;-70
2022/04/06 07:37:51;;;;;;;14.13;2.95;;;;;;;;;;5071165;28;20051;-69
2022/04/06 07:40:18;;;;;;;13.40;2.83;;;;;;;;;;5055656;28;20083;-70
2022/04/06 07:42:44;;;;;;;15.40;2.92;;;;;;;;;;5055987;28;20048;-70
2022/04/06 07:45:13;;;;;;;11.32;2.63;;;;;;;;;;5057425;28;20090;-70
2022/04/06 07:47:40;;;;;;;18.85;3.35;;;;;;;;;;5074231;28;20059;-70
2022/04/06 07:50:07;;;;;;;12.27;3.13;;;;;;;;;;5074775;28;20078;-69
2022/04/06 07:52:33;;;;;;;14.68;3.00;;;;;;;;;;5074549;28;20045;-69
2022/04/06 07:54:59;;;;;;;14.95;3.35;;;;;;;;;;5057218;28;20037;-67
2022/04/06 07:57:25;;;;;;;15.65;2.90;;;;;;;;;;5057222;28;20045;-68
2022/04/06 07:59:54;;;;;;;21.15;4.63;;;;;;;;;;5056792;28;20057;-68
2022/04/06 08:02:21;;;;;;;12.32;3.33;;;;;;;;;;5057005;28;20049;-68
2022/04/06 08:04:47;;;;;;;12.32;2.63;;;;;;;;;;5057259;28;20040;-68
2022/04/06 08:07:14;;;;;;;20.55;3.78;;;;;;;;;;5073433;28;20067;-68
2022/04/06 08:09:40;;;;;;;19.33;3.33;;;;;;;;;;5055988;28;20094;-68
2022/04/06 08:12:06;;;;;;;15.68;2.30;;;;;;;;;;5038810;28;20369;-68
2022/04/06 08:14:33;;;;;;;13.52;2.70;;;;;;;;;;5039352;28;20127;-68
2022/04/06 08:16:59;;;;;;;17.15;3.25;;;;;;;;;;5056681;28;20080;-69
2022/04/06 08:19:25;;;;;;;6.78;1.88;;;;;;;;;;5074038;28;20447;-70
2022/04/06 08:21:52;;;;;;;12.32;2.33;;;;;;;;;;5060982;28;20104;-68
2022/04/06 08:24:18;;;;;;;11.77;3.35;;;;;;;;;;5073103;28;20040;-70
2022/04/06 08:26:44;;;;;;;10.05;3.72;;;;;;;;;;5074173;28;20051;-69
2022/04/06 08:29:10;;;;;;;16.42;3.28;;;;;;;;;;5073890;28;20493;-74
2022/04/06 08:31:37;;;;;;;11.95;2.20;;;;;;;;;;5069489;28;20042;-74
2022/04/06 08:34:06;;;;;;;13.55;3.47;;;;;;;;;;5074093;28;20056;-73
2022/04/06 08:36:32;;;;;;;16.98;2.35;;;;;;;;;;5056093;28;20067;-73
2022/04/06 08:38:59;;;;;;;12.15;2.60;;;;;;;;;;5074223;28;20119;-73
2022/04/06 08:41:26;;;;;;;6.25;1.95;;;;;;;;;;5072486;28;20041;-73
2022/04/06 08:43:53;;;;;;;13.35;2.70;;;;;;;;;;5073490;28;20127;-73
2022/04/06 08:46:20;;;;;;;8.70;1.80;;;;;;;;;;5039568;28;20105;-73
2022/04/06 08:48:51;;;;;;;9.45;2.42;;;;;;;;;;5055774;28;20032;-73
2022/04/06 08:51:17;;;;;;;12.30;2.40;;;;;;;;;;5073544;28;20123;-71
2022/04/06 08:53:45;;;;;;;8.27;2.33;;;;;;;;;;5056625;28;20096;-73
2022/04/06 08:56:14;;;;;;;10.00;2.95;;;;;;;;;;5056664;28;20052;-73
2022/04/06 08:58:41;;;;;;;7.45;1.75;;;;;;;;;;5073859;28;20048;-72
2022/04/06 09:01:07;;;;;;;22.70;3.83;;;;;;;;;;5060098;28;20374;-73
2022/04/06 09:03:35;;;;;;;8.20;1.98;;;;;;;;;;5055727;28;20474;-72
2022/04/06 09:06:18;;;;;;;13.23;1.88;;;;;;;;;;5073774;28;20420;-72
2022/04/06 09:08:46;;;;;;;8.15;2.03;;;;;;;;;;5073362;28;20408;-72
2022/04/06 09:11:16;;;;;;;11.73;3.33;;;;;;;;;;5055677;28;20102;-73
2022/04/06 09:13:42;;;;;;;10.02;1.92;;;;;;;;;;5055570;28;20045;-71
2022/04/06 09:16:09;;;;;;;15.13;2.22;;;;;;;;;;5057751;28;20461;-70
2022/04/06 09:18:36;;;;;;;11.27;2.30;;;;;;;;;;5029748;28;20048;-71
2022/04/06 09:21:03;;;;;;;8.10;2.40;;;;;;;;;;5039043;28;20437;-71
2022/04/06 09:23:30;;;;;;;10.38;2.80;;;;;;;;;;5037962;28;20481;-73
2022/04/06 09:26:01;;;;;;;11.13;2.72;;;;;;;;;;5072559;28;20040;-72
2022/04/06 09:28:27;;;;;;;13.48;2.40;;;;;;;;;;5071931;28;20036;-71
2022/04/06 09:30:53;;;;;;;19.48;3.08;;;;;;;;;;5055728;28;20135;-71
2022/04/06 09:33:20;;;;;;;10.63;3.45;;;;;;;;;;5073282;28;20118;-72
2022/04/06 09:35:46;;;;;;;20.00;3.42;;;;;;;;;;5039268;28;20045;-72
2022/04/06 09:38:13;;;;;;;14.73;3.25;;;;;;;;;;5073304;28;20055;-72
2022/04/06 09:40:39;;;;;;;12.35;2.97;;;;;;;;;;5038309;28;20090;-72
2022/04/06 09:43:06;;;;;;;11.32;2.72;;;;;;;;;;5073226;28;20048;-73
2022/04/06 09:48:16;;;;;;;8.50;2.35;;;;;;;;;;5055280;28;20504;-72
2022/04/06 09:50:53;;;;;;;13.02;3.38;;;;;;;;;;5054936;28;20220;-72
2022/04/06 09:53:19;;;;;;;18.73;3.15;;;;;;;;;;5071661;28;20132;-72
2022/04/06 09:55:45;;;;;;;17.92;3.53;;;;;;;;;;5073143;28;20049;-72
2022/04/06 09:58:13;;;;;;;14.75;3.58;;;;;;;;;;5054979;28;20052;-72
2022/04/06 10:00:39;;;;;;;13.55;3.25;;;;;;;;;;5038374;28;20076;-71
2022/04/06 10:03:06;;;;;;;13.45;3.55;;;;;;;;;;5054058;28;20060;-71
2022/04/06 10:05:34;;;;;;;11.65;3.00;;;;;;;;;;5054867;28;20480;-72
2022/04/06 10:08:01;;;;;;;14.60;3.65;;;;;;;;;;5054838;28;20052;-71
2022/04/06 10:10:27;;;;;;;15.48;3.25;;;;;;;;;;5072213;28;20044;-72
2022/04/06 10:12:53;;;;;;;16.05;3.92;;;;;;;;;;5072623;28;20048;-71
2022/04/06 10:15:19;;;;;;;19.98;2.90;;;;;;;;;;5055022;28;20045;-71
2022/04/06 10:17:45;;;;;;;11.23;3.03;;;;;;;;;;5072748;28;20052;-70
2022/04/06 10:20:21;;;;;;;9.45;3.15;;;;;;;;;;5072284;28;20511;-70
2022/04/06 10:22:52;;;;;;;10.20;2.72;;;;;;;;;;5080443;22;20087;-72
2022/04/06 10:25:18;;;;;;;;;;;;;;;;;;5087722;22;21235;-71
2022/04/06 10:27:51;;;;;;;20.25;3.30;;;;;;;;;;5075408;28;19920;-71
2022/04/06 10:30:17;;;;;;;16.65;3.20;;;;;;;;;;5076043;28;20112;-72
2022/04/06 10:32:48;;;;;;;19.10;3.35;;;;;;;;;;5058205;28;20044;-72
2022/04/06 10:35:18;;;;;;;13.60;2.83;;;;;;;;;;5082326;28;20058;-71
2022/04/06 10:37:50;;;;;;;21.70;4.18;;;;;;;;;;5093916;28;20079;-70
2022/04/06 10:40:17;;;;;;;17.40;3.28;;;;;;;;;;5095819;22;20060;-70
2022/04/06 10:42:45;;;;;;;16.40;3.25;;;;;;;;;;5065723;28;20416;-71
2022/04/06 10:45:29;;;;;;;24.25;4.95;;;;;;;;;;5056328;28;20044;-71
2022/04/06 10:48:12;;;;;;;12.38;2.30;;;;;;;;;;5076350;28;20468;-71
2022/04/06 10:50:38;;;;;;;18.40;3.78;;;;;;;;;;5082527;28;20048;-72
2022/04/06 10:53:22;;;;;;;10.63;2.85;;;;;;;;;;5087199;28;20091;-72
2022/04/06 10:56:05;;;;;;;20.48;3.45;;;;;;;;;;5091800;28;20058;-70
2022/04/06 10:58:57;;;;;;;16.27;4.47;;;;;;;;;;5077247;28;20052;-71
2022/04/06 11:01:29;;;;;;;14.57;3.78;;;;;;;;;;5084620;28;20044;-71
2022/04/06 11:04:06;;;;;;;16.55;3.25;;;;;;;;;;5092348;28;20051;-71
2022/04/06 11:06:41;;;;;;;15.27;3.33;;;;;;;;;;5076985;28;20170;-70
2022/04/06 11:12:12;;;;;;;21.17;4.35;;;;;;;;;;4993669;28;20185;-70
2022/04/06 11:14:38;;;;;;;11.57;2.63;;;;;;;;;;4996262;28;20454;-70
2022/04/06 11:17:35;;;;;;;14.15;3.08;;;11.60;99.90;;;;;;4997432;28;20072;-69
2022/04/06 11:20:01;;;;;;;10.35;2.55;;;;;;;;;;5013619;28;20042;-71
2022/04/06 11:22:28;;;;;;;19.10;2.92;;;;;;;;;;4997717;28;20140;-71
2022/04/06 11:24:54;;;;;;;16.52;3.72;;;;;;;;;;5013512;28;20590;-70
2022/04/06 11:27:33;;;;;;;9.52;3.47;;;;;;;;;;4980400;28;20085;-71
2022/04/06 11:30:22;;;;;;;10.80;2.35;;;;;;;;;;5011988;28;20060;-69
2022/04/06 11:32:50;;;;;;;16.42;3.30;;;;;;;;;;4994346;28;20108;-70
2022/04/06 11:35:17;;;;;;;13.23;2.80;;;;;;;;;;5013206;28;20454;-71
2022/04/06 11:37:47;;;;;;;18.55;3.42;;;;;;;;;;5013461;28;20128;-71
2022/04/06 11:40:14;;;;;;;16.40;3.65;;;;;;;;;;4995070;28;20065;-71
2022/04/06 11:42:40;;;;;;;15.65;4.18;;;;;;;;;;5013532;28;20112;-71
2022/04/06 11:45:07;;;;;;;12.52;3.13;;;;;;;;;;4981120;28;20049;-72
2022/04/06 11:47:34;;;;;;;17.50;2.58;;;;;;;;;;5022098;28;20097;-71
2022/04/06 11:50:00;;;;;;;10.57;2.22;;;;;;;;;;5044167;28;20059;-71
2022/04/06 11:52:26;;;;;;;12.90;2.67;;;;;;;;;;5057868;28;20135;-71
2022/04/06 11:54:53;;;;;;;14.05;2.92;;;;;;;;;;5074490;28;20052;-70
2022/04/06 11:57:20;;;;;;;15.07;2.47;;;;;;;;;;5074160;28;20052;-71
2022/04/06 11:59:53;;;;;;;21.63;3.92;;;;;;;;;;5076744;28;20445;-70
2022/04/06 12:02:19;;;;;;;11.50;2.55;;;;;;;;;;5073945;28;20131;-71
2022/04/06 12:04:48;;;;;;;8.82;2.25;;;;;;;;;;5074044;28;20132;-71
2022/04/06 12:07:19;;;;;;;18.75;2.67;;;;;;;;;;5074566;28;20377;-70
2022/04/06 12:09:45;;;;;;;15.80;2.05;;;;;;;;;;5073587;28;20060;-71
2022/04/06 12:12:11;;;;;;;12.75;3.50;;;;;;;;;;5074515;28;20040;-70
2022/04/06 12:14:37;;;;;;;21.88;3.92;;;;;;;;;;5072955;28;20051;-70
2022/04/06 12:17:03;;;;;;;15.38;2.63;;;;;;;;;;5074622;28;20048;-71
2022/04/06 12:19:33;;;;;;;18.02;2.67;;;;;;;;;;5073688;28;20496;-70
2022/04/06 12:22:06;;;;;;;14.00;3.63;;;;;;;;;;5056047;28;20075;-71
2022/04/06 12:24:39;;;;;;;14.13;2.83;;;;;;;;;;5074171;28;20090;-70
2022/04/06 12:27:05;;;;;;;12.60;3.72;;;;;;;;;;5074339;28;20051;-69
2022/04/06 12:29:32;;;;;;;10.68;3.08;;;;;;;;;;5061161;28;20052;-70
2022/04/06 12:31:58;;;;;;;9.00;2.40;;;;;;;;;;5072854;28;20048;-70
2022/04/06 12:34:35;;;;;;;16.02;3.55;;;;;;;;;;5073780;28;20078;-69
2022/04/06 12:37:29;;;;;;;14.13;3.22;;;;;;;;;;5063073;28;20059;-70
2022/04/06 12:39:49;;;;;;;12.80;2.38;;;;;;;;;;5076246;28;20114;-67
2022/04/06 12:42:15;;;;;;;10.68;2.33;;;;;;;;;;5057111;28;20063;-70
2022/04/06 12:44:53;;;;;;;16.40;3.45;;;;;;;;;;5091710;28;20130;-69
2022/04/06 12:47:25;;;;;;;10.93;2.60;;;;;;;;;;5073561;28;20052;-69
2022/04/06 12:49:51;;;;;;;11.13;2.63;;;;;;;;;;5056320;28;20086;-68
2022/04/06 12:52:21;;;;;;;8.52;2.45;;;;;;;;;;5077642;28;20133;-69
2022/04/06 12:54:49;;;;;;;8.95;2.05;;;;;;;;;;5090087;28;20048;-69
2022/04/06 12:57:16;;;;;;;8.05;2.05;;;;;;;;;;5071597;28;20147;-69
2022/04/06 12:59:45;;;;;;;8.57;2.00;;;;;;;;;;5074167;28;20060;-69
2022/04/06 13:02:18;;;;;;;11.88;2.28;;;;;;;;;;5072440;28;20055;-69
2022/04/06 13:04:44;;;;;;;11.98;2.22;;;;;;;;;;5049387;28;20102;-69
2022/04/06 13:07:11;;;;;;;6.63;1.77;;;;;;;;;;5072320;28;20439;-70
2022/04/06 13:09:51;;;;;;;8.15;1.70;;;;;;;;;;5056356;28;20044;-69
2022/04/06 13:12:17;;;;;;;13.32;2.30;;;;;;;;;;5072420;28;20114;-69
2022/04/06 13:14:44;;;;;;;15.88;2.80;;;;;;;;;;5070113;28;20051;-69
2022/04/06 13:17:10;;;;;;;14.20;2.42;;;;;;;;;;5077285;28;20051;-68
2022/04/06 13:19:36;;;;;;;8.38;1.92;;;;;;;;;;5072615;28;20059;-70
2022/04/06 13:22:02;;;;;;;10.48;2.88;;;;;;;;;;5068637;28;20041;-69
2022/04/06 13:24:28;;;;;;;17.38;2.67;;;;;;;;;;5072703;28;20040;-68
2022/04/06 13:26:54;;;;;;;12.18;2.92;;;;;;;;;;5072367;28;20119;-68
2022/04/06 13:29:20;;;;;;;7.13;2.42;;;;;;;;;;5071923;28;20552;-68
2022/04/06 13:31:46;;;;;;;9.43;2.28;;;;;;;;;;5054375;28;20045;-69
2022/04/06 13:34:15;;;;;;;12.02;2.42;;;;;;;;;;5072860;28;20049;-69
2022/04/06 13:36:41;;;;;;;12.10;2.78;;;;;;;;;;5070765;28;20040;-69
2022/04/06 13:39:07;;;;;;;9.55;2.22;;;;;;;;;;5070163;28;20151;-69
2022/04/06 13:41:33;;;;;;;11.13;2.53;;;;;;;;;;5071323;28;20560;-69
2022/04/06 13:43:59;;;;;;;10.73;2.22;;;;;;;;;;5071042;28;20067;-68
2022/04/06 13:46:25;;;;;;;11.40;2.97;;;;;;;;;;5087672;28;20048;-69
2022/04/06 13:48:52;;;;;;;5.03;2.33;;;;;;;;;;5072546;28;20102;-68
2022/04/06 13:51:19;;;;;;;7.40;2.55;;;;;;;;;;5067970;28;20484;-68
2022/04/06 13:53:45;;;;;;;12.60;3.97;;;;;;;;;;5069866;28;20106;-68
2022/04/06 13:56:11;;;;;;;14.32;4.20;;;;;;;;;;5072521;28;20120;-68
2022/04/06 13:58:37;;;;;;;9.27;3.70;;;;;;;;;;5072516;28;20044;-68
2022/04/06 14:01:03;;;;;;;15.75;5.13;;;;;;;;;;5071311;28;20117;-68
2022/04/06 14:03:29;;;;;;;5.93;3.17;;;;;;;;;;5073336;28;20052;-68
2022/04/06 14:05:55;;;;;;;11.80;4.18;;;;;;;;;;5071050;28;20052;-69
2022/04/06 14:08:30;;;;;;;8.77;3.70;;;;;;;;;;5037860;28;20048;-70
2022/04/06 14:10:57;;;;;;;11.57;6.55;;;;;;;;;;5072487;28;20051;-70
2022/04/06 14:13:23;;;;;;;8.90;4.35;;;;;;;;;;5070984;28;20428;-70
2022/04/06 14:15:49;;;;;;;13.40;6.90;;;;;;;;;;5071291;28;20059;-70
2022/04/06 14:18:15;;;;;;;9.95;5.07;;;;;;;;;;5072537;28;20052;-71
2022/04/06 14:20:41;;;;;;;10.07;5.30;;;;;;;;;;5076779;28;20481;-71
2022/04/06 14:23:07;;;;;;;10.88;6.15;;;;;;;;;;5062453;28;20481;-71
2022/04/06 14:25:33;;;;;;;11.32;6.70;;;;;;;;;;5072241;28;20076;-70
2022/04/06 14:28:00;;;;;;;9.63;5.10;;;;;;;;;;5070582;28;20048;-71
2022/04/06 14:30:26;;;;;;;10.98;5.15;;;;;;;;;;5069895;28;20037;-71
2022/04/06 14:32:52;;;;;;;6.82;3.50;;;;;;;;;;5089487;22;20048;-70
2022/04/06 14:35:19;;;;;;;10.60;5.95;;;;;;;;;;5090960;28;20065;-70
2022/04/06 14:37:48;;;;;;;17.42;7.50;;;;;;;;;;5078215;22;20076;31
2022/04/06 14:40:14;;;;;;;12.00;5.95;;;;;;;;;;5038715;28;20443;-68
2022/04/06 14:42:41;;;;;;;12.45;7.13;;;;;;;;;;5050235;28;20416;-68